.
WxDataArchive / Data Records for 2015-04-05
2015-04-04 April 2015 2015-04-06

Data Records for Sunday, 05 April 2015

Time	Temp	Chill	HIndex	Humid	Dewpt	 Wind 	HiWind	WindDir	Rain 	Barom
-----	----	-----	------	-----	-----	------	------	-------	-----	-----
00:00	45.5	45.5	45.5	55	30.3	0	2	248	0.00	30.161 
00:05	45.5	45.5	45.5	55	30.3	0	3	248	0.00	30.161 
00:10	45.4	45.4	45.4	55	30.2	1	4	248	0.00	30.161 
00:15	45.4	45.4	45.4	55	30.2	1	4	248	0.00	30.159 
00:20	45.4	45.4	45.4	55	30.2	1	3	225	0.00	30.159 
00:25	45.4	45.4	45.4	56	30.6	1	3	248	0.00	30.159 
00:30	45.4	45.4	45.4	56	30.6	1	4	248	0.00	30.158 
00:35	45.4	45.4	45.4	56	30.6	1	3	270	0.00	30.158 
00:40	45.2	45.2	45.2	56	30.4	0	2	270	0.00	30.158 
00:45	45.2	45.2	45.2	56	30.4	1	3	248	0.00	30.159 
00:50	45.2	45.2	45.2	56	30.4	1	5	248	0.00	30.159 
00:55	45.2	45.2	45.2	56	30.4	0	2	248	0.00	30.159 
01:00	45.1	45.1	45.1	57	30.8	0	2	248	0.00	30.158 
01:05	44.9	44.9	44.9	57	30.6	0	3	248	0.00	30.158 
01:10	44.8	44.8	44.8	58	30.9	1	5	248	0.00	30.158 
01:15	44.6	44.6	44.6	58	30.7	0	3	248	0.00	30.153 
01:20	44.5	44.5	44.5	58	30.7	1	3	248	0.00	30.153 
01:25	44.5	44.5	44.5	58	30.7	1	4	248	0.00	30.153 
01:30	44.5	44.5	44.5	58	30.7	1	4	248	0.00	30.147 
01:35	44.5	44.5	44.5	58	30.7	1	4	248	0.00	30.147 
01:40	44.3	44.3	44.3	58	30.5	0	3	248	0.00	30.147 
01:45	44.3	44.3	44.3	58	30.5	1	4	248	0.00	30.142 
01:50	44.3	44.3	44.3	58	30.5	1	4	248	0.00	30.142 
01:55	44.3	44.3	44.3	58	30.5	1	4	248	0.00	30.142 
02:00	44.2	44.2	44.2	58	30.4	1	4	248	0.00	30.140 
02:05	44.2	44.2	44.2	58	30.4	1	4	248	0.00	30.140 
02:10	44.1	44.1	44.1	58	30.3	0	3	248	0.00	30.140 
02:15	43.9	43.9	43.9	59	30.5	0	2	248	0.00	30.132 
02:20	43.9	43.9	43.9	59	30.5	1	4	248	0.00	30.132 
02:25	43.9	43.9	43.9	58	30.1	1	4	248	0.00	30.132 
02:30	43.9	43.9	43.9	58	30.1	1	5	248	0.00	30.124 
02:35	43.9	43.9	43.9	58	30.1	0	3	248	0.00	30.124 
02:40	43.9	43.9	43.9	58	30.1	0	3	248	0.00	30.124 
02:45	43.8	43.8	43.8	58	30.0	1	4	248	0.00	30.124 
02:50	43.9	43.9	43.9	58	30.1	1	5	248	0.00	30.124 
02:55	43.9	43.9	43.9	58	30.1	1	3	248	0.00	30.124 
03:00	43.8	43.8	43.8	58	30.0	1	4	248	0.00	30.122 
03:05	43.8	43.8	43.8	58	30.0	1	3	248	0.00	30.122 
03:10	43.8	43.8	43.8	58	30.0	1	4	270	0.00	30.122 
03:15	43.8	43.8	43.8	58	30.0	1	3	270	0.00	30.117 
03:20	43.8	43.8	43.8	58	30.0	1	4	248	0.00	30.117 
03:25	43.6	43.6	43.6	59	30.2	0	3	248	0.00	30.117 
03:30	43.6	43.6	43.6	59	30.2	0	2	248	0.00	30.112 
03:35	43.6	43.6	43.6	59	30.2	1	5	248	0.00	30.112 
03:40	43.8	43.8	43.8	58	30.0	1	4	248	0.00	30.112 
03:45	43.9	43.9	43.9	58	30.1	2	6	248	0.00	30.116 
03:50	44.1	44.1	44.1	58	30.3	1	5	270	0.00	30.116 
03:55	43.9	43.9	43.9	58	30.1	1	4	270	0.00	30.116 
04:00	43.9	43.9	43.9	58	30.1	1	4	248	0.00	30.118 
04:05	43.9	43.9	43.9	58	30.1	1	4	248	0.00	30.118 
04:10	43.8	43.8	43.8	58	30.0	1	4	248	0.00	30.118 
04:15	43.8	43.8	43.8	58	30.0	1	5	248	0.00	30.118 
04:20	43.8	43.8	43.8	58	30.0	1	3	248	0.00	30.118 
04:25	43.6	43.6	43.6	58	29.8	1	5	248	0.00	30.118 
04:30	43.6	43.6	43.6	58	29.8	1	3	248	0.00	30.112 
04:35	43.6	43.6	43.6	58	29.8	1	3	248	0.00	30.112 
04:40	43.6	43.6	43.6	58	29.8	1	4	248	0.00	30.112 
04:45	43.6	43.6	43.6	58	29.8	1	4	248	0.00	30.110 
04:50	43.5	43.5	43.5	58	29.7	1	4	248	0.00	30.110 
04:55	43.5	43.5	43.5	58	29.7	0	2	248	0.00	30.110 
05:00	43.5	43.5	43.5	58	29.7	1	3	248	0.00	30.113 
05:05	43.5	43.5	43.5	58	29.7	1	4	248	0.00	30.113 
05:10	43.5	43.5	43.5	57	29.3	1	3	248	0.00	30.113 
05:15	43.5	43.5	43.5	57	29.3	1	4	248	0.00	30.118 
05:20	43.5	43.5	43.5	57	29.3	1	3	248	0.00	30.118 
05:25	43.5	43.5	43.5	57	29.3	1	6	248	0.00	30.118 
05:30	43.3	43.3	43.3	57	29.1	1	3	248	0.00	30.120 
05:35	43.3	43.3	43.3	57	29.1	1	3	248	0.00	30.120 
05:40	43.2	43.2	43.2	57	29.0	1	3	248	0.00	30.120 
05:45	43.1	43.1	43.1	58	29.3	0	1	248	0.00	30.121 
05:50	42.9	42.9	42.9	58	29.2	0	3	248	0.00	30.121 
05:55	42.9	42.9	42.9	58	29.2	0	3	248	0.00	30.121 
06:00	42.8	42.8	42.8	58	29.1	0	3	248	0.00	30.120 
06:05	42.8	42.8	42.8	58	29.1	0	3	248	0.00	30.120 
06:10	42.6	42.6	42.6	58	28.9	0	3	248	0.00	30.120 
06:15	42.6	42.6	42.6	58	28.9	1	4	248	0.00	30.123 
06:20	42.5	42.5	42.5	59	29.2	0	4	270	0.00	30.123 
06:25	42.3	42.3	42.3	59	29.0	0	4	248	0.00	30.123 
06:30	42.3	42.3	42.3	59	29.0	0	1	248	0.00	30.126 
06:35	42.2	42.2	42.2	59	28.9	1	4	248	0.00	30.126 
06:40	42.2	42.2	42.2	59	28.9	0	3	248	0.00	30.126 
06:45	42.2	42.2	42.2	59	28.9	0	3	248	0.00	30.127 
06:50	42.1	42.1	42.1	59	28.8	0	2	248	0.00	30.127 
06:55	42.1	42.1	42.1	59	28.8	0	2	248	0.00	30.127 
07:00	42.2	42.2	42.2	59	28.9	1	3	248	0.00	30.127 
07:05	42.2	42.2	42.2	59	28.9	1	3	248	0.00	30.127 
07:10	42.2	42.2	42.2	58	28.5	0	3	248	0.00	30.127 
07:15	42.2	42.2	42.2	59	28.9	0	2	248	0.00	30.127 
07:20	42.1	42.1	42.1	59	28.8	0	3	248	0.00	30.127 
07:25	42.1	42.1	42.1	59	28.8	0	3	248	0.00	30.127 
07:30	41.9	41.9	41.9	59	28.6	1	4	248	0.00	30.126 
07:35	41.9	41.9	41.9	59	28.6	1	3	248	0.00	30.126 
07:40	41.9	41.9	41.9	60	29.0	0	2	248	0.00	30.126 
07:45	41.9	41.9	41.9	59	28.6	1	5	248	0.00	30.135 
07:50	41.9	41.9	41.9	59	28.6	1	4	248	0.00	30.135 
07:55	42.1	42.1	42.1	58	28.4	1	4	248	0.00	30.135 
08:00	42.2	42.2	42.2	58	28.5	0	2	248	0.00	30.138 
08:05	42.3	42.3	42.3	58	28.6	0	2	270	0.00	30.138 
08:10	42.5	42.5	42.5	57	28.4	1	5	248	0.00	30.138 
08:15	42.6	42.6	42.6	56	28.0	1	4	248	0.00	30.140 
08:20	42.8	42.8	42.8	56	28.2	0	4	248	0.00	30.140 
08:25	42.9	42.9	42.9	56	28.3	1	4	248	0.00	30.140 
08:30	43.1	43.1	43.1	56	28.5	0	3	248	0.00	30.144 
08:35	43.1	43.1	43.1	55	28.0	1	4	248	0.00	30.144 
08:40	43.2	43.2	43.2	55	28.1	1	3	248	0.00	30.144 
08:45	43.2	43.2	43.2	54	27.7	1	4	248	0.00	30.149 
08:50	43.3	43.3	43.3	54	27.8	1	3	248	0.00	30.149 
08:55	43.6	43.6	43.6	54	28.1	1	5	248	0.00	30.149 
09:00	44.1	44.1	44.1	54	28.5	0	1	248	0.00	30.153 
09:05	44.3	44.3	44.3	53	28.3	2	4	270	0.00	30.153 
09:10	44.8	44.8	44.8	52	28.3	1	3	248	0.00	30.153 
09:15	45.2	45.2	45.2	50	27.7	2	5	270	0.00	30.155 
09:20	45.7	45.7	45.7	50	28.1	1	5	248	0.00	30.155 
09:25	46.1	46.1	46.1	49	28.0	1	5	248	0.00	30.155 
09:30	46.5	46.5	46.5	48	27.9	1	4	248	0.00	30.156 
09:35	46.8	46.8	46.8	47	27.6	3	11	248	0.00	30.156 
09:40	47.3	47.3	47.3	46	27.6	2	6	248	0.00	30.156 
09:45	47.9	47.9	47.9	45	27.6	2	5	248	0.00	30.151 
09:50	48.5	48.5	48.5	43	27.0	2	6	248	0.00	30.151 
09:55	48.9	48.9	48.9	42	26.8	2	7	248	0.00	30.151 
10:00	49.4	49.4	49.4	42	27.3	2	9	270	0.00	30.152 
10:05	49.9	49.9	49.9	40	26.6	2	6	248	0.00	30.152 
10:10	50.2	50.2	50.2	40	26.8	2	7	270	0.00	30.152 
10:15	50.7	50.7	50.7	38	26.0	3	10	270	0.00	30.153 
10:20	51.3	51.3	51.3	39	27.2	1	3	270	0.00	30.153 
10:25	52.0	52.0	52.0	38	27.2	2	6	248	0.00	30.153 
10:30	52.6	52.6	52.6	36	26.4	2	6	270	0.00	30.151 
10:35	52.9	52.9	52.9	35	26.0	2	5	248	0.00	30.151 
10:40	53.5	53.5	53.5	36	27.2	1	5	248	0.00	30.151 
10:45	53.9	53.9	53.9	34	26.2	2	6	248	0.00	30.149 
10:50	54.1	54.1	54.1	33	25.6	2	6	248	0.00	30.149 
10:55	54.2	54.2	54.2	32	25.0	3	11	270	0.00	30.149 
11:00	54.4	54.4	54.4	32	25.2	3	7	248	0.00	30.146 
11:05	54.7	54.7	54.7	33	26.2	3	6	270	0.00	30.146 
11:10	55.1	55.1	55.1	34	27.2	2	5	248	0.00	30.146 
11:15	55.7	55.7	55.7	31	25.5	2	10	248	0.00	30.135 
11:20	56.2	56.2	56.2	32	26.7	2	5	270	0.00	30.135 
11:25	56.5	56.5	56.5	31	26.2	3	9	248	0.00	30.135 
11:30	56.6	56.6	56.6	30	25.5	3	7	248	0.00	30.132 
11:35	56.9	56.9	56.9	29	25.0	3	6	248	0.00	30.132 
11:40	56.9	56.9	56.9	28	24.1	4	12	248	0.00	30.132 
11:45	57.2	57.2	57.2	30	26.1	2	9	248	0.00	30.131 
11:50	57.5	57.5	57.5	28	24.7	4	10	248	0.00	30.131 
11:55	57.8	57.8	57.8	28	24.9	3	7	248	0.00	30.131 
12:00	58.1	58.1	58.1	27	24.3	3	11	248	0.00	30.126 
12:05	58.6	58.6	58.6	27	24.7	3	7	248	0.00	30.126 
12:10	58.7	58.7	58.7	26	23.9	3	7	270	0.00	30.126 
12:15	59.0	59.0	59.0	25	23.2	4	8	248	0.00	30.114 
12:20	59.2	59.2	59.2	26	24.3	3	10	248	0.00	30.114 
12:25	59.2	59.2	59.2	24	22.4	4	12	248	0.00	30.114 
12:30	59.3	59.3	59.3	25	23.5	4	7	248	0.00	30.110 
12:35	59.5	59.5	59.5	24	22.7	4	9	248	0.00	30.110 
12:40	59.8	59.8	59.8	25	23.9	3	9	248	0.00	30.110 
12:45	60.1	60.1	60.1	26	25.1	3	9	248	0.00	30.102 
12:50	60.1	60.1	60.1	24	23.2	4	13	248	0.00	30.102 
12:55	60.2	60.2	60.2	27	26.1	3	7	248	0.00	30.102 
13:00	60.5	60.5	60.5	25	24.5	3	9	248	0.00	30.096 
13:05	61.0	61.0	61.0	25	24.9	3	7	248	0.00	30.096 
13:10	60.9	60.9	60.9	22	21.8	5	11	248	0.00	30.096 
13:15	60.9	60.9	60.9	25	24.8	3	7	270	0.00	30.094 
13:20	61.2	61.2	61.2	24	24.1	3	8	248	0.00	30.094 
13:25	61.6	61.6	61.6	26	26.4	3	9	248	0.00	30.094 
13:30	61.6	61.6	61.6	22	22.4	4	8	248	0.00	30.084 
13:35	61.6	61.6	61.6	25	25.4	3	6	270	0.00	30.084 
13:40	62.1	62.1	62.1	24	24.9	2	9	270	0.00	30.084 
13:45	62.3	62.3	62.3	25	26.0	3	7	248	0.00	30.081 
13:50	62.1	62.1	62.1	24	24.9	2	6	248	0.00	30.081 
13:55	62.4	62.4	62.4	24	25.1	2	6	248	0.00	30.081 
14:00	62.3	62.3	62.3	23	24.0	3	8	248	0.00	30.080 
14:05	62.4	62.4	62.4	24	25.1	2	8	248	0.00	30.080 
14:10	62.6	62.6	62.6	23	24.3	3	8	248	0.00	30.080 
14:15	62.7	62.7	62.7	23	24.4	2	5	248	0.00	30.071 
14:20	63.1	63.1	63.1	22	23.6	2	6	248	0.00	30.071 
14:25	63.1	63.1	63.1	23	24.7	2	10	270	0.00	30.071 
14:30	63.1	63.1	63.1	21	22.5	4	11	248	0.00	30.069 
14:35	62.7	62.7	62.7	21	22.2	3	7	248	0.00	30.069 
14:40	62.9	62.9	62.9	21	22.4	2	7	248	0.00	30.069 
14:45	62.9	62.9	62.9	22	23.5	3	9	248	0.00	30.066 
14:50	62.9	62.9	62.9	22	23.5	4	10	248	0.00	30.066 
14:55	63.1	63.1	63.1	22	23.6	1	5	248	0.00	30.066 
15:00	63.5	63.5	63.5	24	26.1	2	5	248	0.00	30.063 
15:05	63.4	63.4	63.4	22	23.9	3	9	248	0.00	30.063 
15:10	63.2	63.2	63.2	23	24.8	3	9	248	0.00	30.063 
15:15	63.4	63.4	63.4	23	25.0	2	6	248	0.00	30.062 
15:20	63.5	63.5	63.5	22	24.0	3	6	248	0.00	30.062 
15:25	63.4	63.4	63.4	22	23.9	3	8	248	0.00	30.062 
15:30	63.5	63.5	63.5	22	24.0	3	6	248	0.00	30.049 
15:35	63.7	63.7	63.7	21	23.0	3	7	248	0.00	30.049 
15:40	63.9	63.9	63.9	23	25.4	2	5	248	0.00	30.049 
15:45	63.7	63.7	63.7	23	25.2	2	6	248	0.00	30.045 
15:50	63.7	63.7	63.7	24	26.2	2	9	248	0.00	30.045 
15:55	63.7	63.7	63.7	22	24.1	2	6	248	0.00	30.045 
16:00	63.9	63.9	63.9	23	25.4	2	5	248	0.00	30.038 
16:05	63.7	63.7	63.7	22	24.1	2	6	248	0.00	30.038 
16:10	63.4	63.4	63.4	22	23.9	2	6	248	0.00	30.038 
16:15	63.4	63.4	63.4	24	26.0	3	6	248	0.00	30.034 
16:20	63.4	63.4	63.4	25	27.0	1	6	248	0.00	30.034 
16:25	63.5	63.5	63.5	24	26.1	1	3	270	0.00	30.034 
16:30	63.7	63.7	63.7	24	26.2	2	9	248	0.00	30.032 
16:35	63.5	63.5	63.5	25	27.1	1	4	248	0.00	30.032 
16:40	63.2	63.2	63.2	23	24.8	2	9	248	0.00	30.032 
16:45	63.2	63.2	63.2	24	25.8	2	6	248	0.00	30.033 
16:50	63.2	63.2	63.2	22	23.7	2	6	248	0.00	30.033 
16:55	63.2	63.2	63.2	23	24.8	1	5	248	0.00	30.033 
17:00	63.2	63.2	63.2	24	25.8	1	4	270	0.00	30.024 
17:05	63.1	63.1	63.1	23	24.7	2	9	248	0.00	30.024 
17:10	62.9	62.9	62.9	22	23.5	2	6	248	0.00	30.024 
17:15	62.9	62.9	62.9	23	24.5	2	7	248	0.00	30.031 
17:20	62.9	62.9	62.9	25	26.5	1	5	248	0.00	30.031 
17:25	62.9	62.9	62.9	23	24.5	2	6	248	0.00	30.031 
17:30	62.7	62.7	62.7	23	24.4	2	5	248	0.00	30.032 
17:35	62.7	62.7	62.7	23	24.4	2	6	248	0.00	30.032 
17:40	62.7	62.7	62.7	22	23.3	2	6	248	0.00	30.032 
17:45	62.9	62.9	62.9	21	22.4	2	7	248	0.00	30.033 
17:50	63.1	63.1	63.1	23	24.7	1	5	248	0.00	30.033 
17:55	63.2	63.2	63.2	22	23.7	1	5	248	0.00	30.033 
18:00	63.4	63.4	63.4	22	23.9	2	4	248	0.00	30.034 
18:05	63.2	63.2	63.2	23	24.8	1	6	248	0.00	30.034 
18:10	62.9	62.9	62.9	22	23.5	1	4	248	0.00	30.034 
18:15	62.3	62.3	62.3	22	23.0	2	5	248	0.00	30.038 
18:20	61.8	61.8	61.8	23	23.6	2	6	248	0.00	30.038 
18:25	61.6	61.6	61.6	23	23.4	1	4	248	0.00	30.038 
18:30	61.5	61.5	61.5	23	23.4	1	4	248	0.00	30.048 
18:35	61.3	61.3	61.3	23	23.2	1	4	248	0.00	30.048 
18:40	61.3	61.3	61.3	23	23.2	1	4	248	0.00	30.048 
18:45	61.3	61.3	61.3	23	23.2	1	3	248	0.00	30.050 
18:50	61.2	61.2	61.2	24	24.1	1	5	270	0.00	30.050 
18:55	61.0	61.0	61.0	25	24.9	1	4	248	0.00	30.050 
19:00	61.0	61.0	61.0	25	24.9	0	2	248	0.00	30.052 
19:05	61.0	61.0	61.0	24	24.0	1	3	248	0.00	30.052 
19:10	60.9	60.9	60.9	24	23.9	1	5	248	0.00	30.052 
19:15	60.7	60.7	60.7	24	23.7	1	4	248	0.00	30.054 
19:20	60.4	60.4	60.4	26	25.4	0	2	248	0.00	30.054 
19:25	60.1	60.1	60.1	25	24.2	0	2	248	0.00	30.054 
19:30	59.8	59.8	59.8	26	24.9	0	3	248	0.00	30.054 
19:35	59.6	59.6	59.6	26	24.7	0	1	248	0.00	30.054 
19:40	59.3	59.3	59.3	28	26.2	0	2	248	0.00	30.054 
19:45	59.2	59.2	59.2	26	24.3	0	2	248	0.00	30.058 
19:50	59.0	59.0	59.0	26	24.2	1	5	248	0.00	30.058 
19:55	58.9	58.9	58.9	26	24.1	0	3	248	0.00	30.058 
20:00	58.6	58.6	58.6	27	24.7	0	2	248	0.00	30.062 
20:05	58.3	58.3	58.3	27	24.5	0	1	248	0.00	30.062 
20:10	58.0	58.0	58.0	28	25.1	0	2	248	0.00	30.062 
20:15	57.5	57.5	57.5	28	24.7	0	1	248	0.00	30.064 
20:20	57.0	57.0	57.0	28	24.2	0	1	248	0.00	30.064 
20:25	56.6	56.6	56.6	27	23.0	0	1	248	0.00	30.064 
20:30	56.2	56.2	56.2	28	23.5	0	0	---	0.00	30.063 
20:35	55.7	55.7	55.7	29	23.9	0	0	---	0.00	30.063 
20:40	55.3	55.3	55.3	29	23.6	0	0	---	0.00	30.063 
20:45	54.7	54.7	54.7	30	23.9	0	0	---	0.00	30.065 
20:50	54.2	54.2	54.2	31	24.2	0	0	---	0.00	30.065 
20:55	53.8	53.8	53.8	31	23.9	0	0	---	0.00	30.065 
21:00	53.3	53.3	53.3	32	24.2	0	0	---	0.00	30.065 
21:05	52.9	52.9	52.9	34	25.3	0	0	---	0.00	30.065 
21:10	52.5	52.5	52.5	34	25.0	0	0	---	0.00	30.065 
21:15	52.0	52.0	52.0	35	25.2	0	0	---	0.00	30.063 
21:20	51.7	51.7	51.7	36	25.6	0	0	---	0.00	30.063 
21:25	51.3	51.3	51.3	36	25.3	0	0	---	0.00	30.063 
21:30	51.0	51.0	51.0	37	25.7	0	0	---	0.00	30.065 
21:35	50.5	50.5	50.5	38	25.9	0	0	---	0.00	30.065 
21:40	50.1	50.1	50.1	38	25.5	0	0	---	0.00	30.065 
21:45	49.5	49.5	49.5	39	25.6	0	0	---	0.00	30.071 
21:50	49.1	49.1	49.1	40	25.8	0	0	---	0.00	30.071 
21:55	48.6	48.6	48.6	41	26.0	0	0	---	0.00	30.071 
22:00	48.2	48.2	48.2	43	26.8	0	0	---	0.00	30.072 
22:05	47.7	47.7	47.7	44	26.9	0	0	---	0.00	30.072 
22:10	47.3	47.3	47.3	45	27.0	0	0	---	0.00	30.072 
22:15	46.8	46.8	46.8	45	26.6	0	0	---	0.00	30.067 
22:20	46.7	46.7	46.7	46	27.0	0	0	---	0.00	30.067 
22:25	46.4	46.4	46.4	47	27.3	0	0	---	0.00	30.067 
22:30	46.2	46.2	46.2	47	27.1	0	1	248	0.00	30.067 
22:35	46.0	46.0	46.0	48	27.4	0	0	---	0.00	30.067 
22:40	45.7	45.7	45.7	49	27.6	0	0	---	0.00	30.067 
22:45	45.2	45.2	45.2	50	27.7	0	0	---	0.00	30.069 
22:50	44.9	44.9	44.9	49	26.9	0	0	---	0.00	30.069 
22:55	44.5	44.5	44.5	50	27.0	0	0	---	0.00	30.069 
23:00	44.2	44.2	44.2	51	27.2	0	0	---	0.00	30.071 
23:05	43.9	43.9	43.9	51	27.0	0	0	---	0.00	30.071 
23:10	43.8	43.8	43.8	52	27.3	0	0	---	0.00	30.071 
23:15	43.5	43.5	43.5	52	27.1	0	0	---	0.00	30.069 
23:20	43.1	43.1	43.1	53	27.1	0	0	---	0.00	30.069 
23:25	42.8	42.8	42.8	53	26.9	0	0	---	0.00	30.069 
23:30	42.5	42.5	42.5	54	27.0	0	0	---	0.00	30.070 
23:35	42.2	42.2	42.2	53	26.3	0	0	---	0.00	30.070 
23:40	41.9	41.9	41.9	54	26.5	0	0	---	0.00	30.070 
23:45	41.6	41.6	41.6	54	26.2	0	0	---	0.00	30.069 
23:50	41.3	41.3	41.3	55	26.4	0	0	---	0.00	30.069 
23:55	41.2	41.2	41.2	55	26.3	0	0	---	0.00	30.069 

CoCoRaHS
IN-AL-39
A2 Web Hosting
Creative Commons License
GoDaddy
search engine by freefind advanced

loaded 2018-11-20 06:34:32 • last modified 2010-11-18 10:43:29
Privacy PolicyDisclaimer
• wx.awcolley.com is powered by PmWiki v.2002016 •
• all content (unless otherwise noted) © 2018 A W Colley